createdAt,value
2018-10-18T00:00:40.231Z,14.78
2018-10-18T00:03:10.716Z,14.73
2018-10-18T00:05:40.221Z,14.67
2018-10-18T00:08:10.067Z,14.59
2018-10-18T00:10:39.790Z,14.48
2018-10-18T00:13:09.038Z,14.53
2018-10-18T00:15:39.471Z,14.55
2018-10-18T00:18:09.023Z,14.52
2018-10-18T00:20:38.933Z,14.47
2018-10-18T00:23:08.411Z,14.39
2018-10-18T00:25:38.326Z,14.36
2018-10-18T00:28:07.632Z,14.36
2018-10-18T00:30:37.095Z,14.36
2018-10-18T00:33:07.447Z,14.38
2018-10-18T00:35:36.955Z,14.32
2018-10-18T00:38:06.886Z,14.27
2018-10-18T00:40:36.371Z,14.27
2018-10-18T00:43:05.916Z,14.26
2018-10-18T00:45:35.390Z,14.23
2018-10-18T00:48:05.368Z,14.19
2018-10-18T00:50:35.007Z,14.13
2018-10-18T00:53:04.930Z,14.06
2018-10-18T00:55:34.422Z,14.13
2018-10-18T00:58:03.926Z,14.14
2018-10-18T01:00:33.176Z,14.09
2018-10-18T01:03:02.528Z,14.13
2018-10-18T01:05:32.222Z,14.13
2018-10-18T01:08:01.999Z,14.17
2018-10-18T01:10:31.495Z,14.18
2018-10-18T01:13:00.738Z,14.12
2018-10-18T01:15:30.365Z,14.06
2018-10-18T01:17:59.675Z,14.02
2018-10-18T01:20:29.143Z,13.97
2018-10-18T01:22:58.537Z,13.90
2018-10-18T01:25:28.535Z,13.95
2018-10-18T01:27:57.981Z,13.92
2018-10-18T01:30:27.924Z,13.97
2018-10-18T01:32:57.391Z,13.95
2018-10-18T01:35:27.702Z,14.06
2018-10-18T01:37:57.504Z,14.03
2018-10-18T01:40:27.388Z,14.11
2018-10-18T01:42:56.651Z,14.13
2018-10-18T01:45:26.266Z,14.19
2018-10-18T01:47:55.564Z,14.24
2018-10-18T01:50:25.183Z,14.40
2018-10-18T01:52:54.525Z,14.37
2018-10-18T01:55:24.000Z,14.41
2018-10-18T01:57:53.520Z,14.46
2018-10-18T02:00:23.426Z,14.60
2018-10-18T02:02:53.142Z,14.59
2018-10-18T02:05:23.214Z,14.42
2018-10-18T02:07:53.147Z,14.60
2018-10-18T02:10:22.865Z,14.64
2018-10-18T02:12:52.365Z,14.60
2018-10-18T02:15:22.036Z,14.70
2018-10-18T02:17:52.859Z,14.65
2018-10-18T02:20:22.586Z,14.58
2018-10-18T02:22:52.463Z,14.54
2018-10-18T02:25:22.304Z,14.53
2018-10-18T02:27:51.863Z,14.60
2018-10-18T02:30:21.583Z,14.65
2018-10-18T02:32:51.486Z,14.70
2018-10-18T02:35:21.195Z,14.78
2018-10-18T02:37:50.701Z,14.76
2018-10-18T02:40:20.219Z,14.80
2018-10-18T02:42:50.164Z,14.84
2018-10-18T02:45:19.588Z,14.79
2018-10-18T02:47:50.896Z,14.85
2018-10-18T02:50:21.131Z,14.78
2018-10-18T02:52:51.865Z,14.74
2018-10-18T02:55:23.282Z,14.77
2018-10-18T02:57:53.269Z,14.75
2018-10-18T03:00:25.382Z,14.76
2018-10-18T03:02:56.009Z,14.78
2018-10-18T03:05:26.904Z,14.69
2018-10-18T03:07:57.700Z,14.67
2018-10-18T03:10:28.734Z,14.71
2018-10-18T03:12:59.771Z,14.63
2018-10-18T03:15:30.292Z,14.71
2018-10-18T03:18:00.540Z,14.77
2018-10-18T03:20:31.104Z,14.70
2018-10-18T03:23:01.583Z,14.73
2018-10-18T03:25:31.757Z,14.71
2018-10-18T03:28:02.961Z,14.59
2018-10-18T03:30:33.192Z,14.64
2018-10-18T03:33:03.803Z,14.67
2018-10-18T03:35:34.902Z,14.75
2018-10-18T03:38:05.373Z,14.71
2018-10-18T03:40:34.939Z,14.67
2018-10-18T03:43:05.512Z,14.52
2018-10-18T03:45:35.733Z,14.52
2018-10-18T03:48:05.763Z,14.50
2018-10-18T03:50:35.978Z,14.57
2018-10-18T03:53:05.737Z,14.57
2018-10-18T03:55:36.112Z,14.57
2018-10-18T03:58:06.027Z,14.59
2018-10-18T04:00:36.450Z,14.62
2018-10-18T04:03:07.749Z,14.63
2018-10-18T04:05:38.397Z,14.57
2018-10-18T04:08:10.098Z,14.49
2018-10-18T04:10:39.827Z,14.58
2018-10-18T04:13:10.106Z,14.58
2018-10-18T04:15:42.513Z,14.58
2018-10-18T04:18:13.609Z,14.57
2018-10-18T04:20:43.873Z,14.52
2018-10-18T04:23:18.653Z,14.68
2018-10-18T04:25:48.308Z,14.52
2018-10-18T04:28:18.643Z,14.57
2018-10-18T04:30:50.184Z,14.44
2018-10-18T04:33:20.922Z,14.58
2018-10-18T04:35:51.502Z,14.61
2018-10-18T04:38:21.808Z,14.61
2018-10-18T04:40:51.334Z,14.62
2018-10-18T04:43:20.838Z,14.65
2018-10-18T04:45:50.509Z,14.56
2018-10-18T04:48:20.406Z,14.47
2018-10-18T04:50:49.770Z,14.58
2018-10-18T04:53:19.270Z,14.73
2018-10-18T04:55:49.206Z,14.71
2018-10-18T04:58:18.660Z,14.63
2018-10-18T05:00:53.923Z,14.67
2018-10-18T05:03:23.996Z,14.79
2018-10-18T05:05:55.395Z,14.76
2018-10-18T05:08:25.942Z,14.81
2018-10-18T05:10:56.258Z,14.83
2018-10-18T05:13:25.743Z,14.83
2018-10-18T05:15:55.462Z,14.83
2018-10-18T05:18:25.270Z,14.88
2018-10-18T05:20:54.731Z,14.86
2018-10-18T05:23:26.242Z,14.75
2018-10-18T05:25:56.326Z,14.76
2018-10-18T05:28:26.015Z,14.89
2018-10-18T05:30:55.559Z,14.96
2018-10-18T05:33:24.926Z,14.92
2018-10-18T05:35:54.497Z,14.94
2018-10-18T05:38:23.743Z,15.08
2018-10-18T05:40:54.187Z,15.12
2018-10-18T05:43:25.224Z,15.23
2018-10-18T05:45:55.727Z,15.07
2018-10-18T05:48:25.349Z,15.03
2018-10-18T05:50:54.927Z,14.98
2018-10-18T05:53:24.445Z,15.09
2018-10-18T05:55:54.310Z,15.26
2018-10-18T05:58:23.793Z,15.30
2018-10-18T06:00:53.340Z,15.33
2018-10-18T06:03:23.643Z,15.45
2018-10-18T06:05:53.125Z,15.30
2018-10-18T06:08:22.618Z,15.41
2018-10-18T06:11:03.042Z,15.41
2018-10-18T06:13:32.358Z,15.23
2018-10-18T06:16:02.335Z,15.26
2018-10-18T06:18:31.717Z,15.21
2018-10-18T06:21:04.934Z,15.19
2018-10-18T06:23:35.044Z,15.26
2018-10-18T06:26:04.526Z,15.18
2018-10-18T06:28:34.025Z,15.20
2018-10-18T06:31:03.672Z,15.07
2018-10-18T06:33:33.627Z,15.06
2018-10-18T06:36:03.142Z,15.03
2018-10-18T06:38:32.678Z,15.11
2018-10-18T06:41:02.308Z,15.18
2018-10-18T06:43:38.608Z,15.26
2018-10-18T06:46:10.855Z,15.33
2018-10-18T06:48:41.535Z,15.39
2018-10-18T06:51:11.467Z,15.33
2018-10-18T06:53:42.101Z,14.94
2018-10-18T06:56:11.487Z,14.95
2018-10-18T06:58:41.266Z,14.87
2018-10-18T07:01:10.709Z,14.86
2018-10-18T07:03:40.185Z,15.01
2018-10-18T07:06:09.747Z,15.23
2018-10-18T07:08:39.185Z,15.42
2018-10-18T07:11:09.803Z,15.49
2018-10-18T07:13:39.252Z,15.25
2018-10-18T07:16:08.755Z,15.00
2018-10-18T07:18:38.242Z,15.13
2018-10-18T07:21:07.816Z,15.36
2018-10-18T07:23:37.667Z,15.21
2018-10-18T07:26:07.211Z,15.15
2018-10-18T07:28:36.667Z,15.17
2018-10-18T07:31:06.168Z,15.29
2018-10-18T07:33:35.507Z,15.49
2018-10-18T07:36:05.050Z,15.59
2018-10-18T07:38:34.518Z,15.42
2018-10-18T07:41:04.070Z,15.55
2018-10-18T07:43:33.749Z,15.56
2018-10-18T07:46:03.479Z,15.43
2018-10-18T07:48:32.939Z,15.60
2018-10-18T07:51:02.889Z,15.37
2018-10-18T07:53:32.241Z,15.53
2018-10-18T07:56:01.640Z,15.33
2018-10-18T07:58:31.152Z,15.30
2018-10-18T08:01:01.228Z,15.46
2018-10-18T08:03:30.566Z,15.61
2018-10-18T08:06:00.078Z,15.67
2018-10-18T08:08:29.743Z,15.84
2018-10-18T08:10:59.154Z,15.95
2018-10-18T08:13:28.619Z,15.72
2018-10-18T08:15:58.111Z,15.77
2018-10-18T08:18:28.495Z,15.81
2018-10-18T08:20:57.770Z,15.71
2018-10-18T08:23:27.633Z,15.75
2018-10-18T08:25:57.138Z,15.89
2018-10-18T08:28:26.566Z,15.74
2018-10-18T08:30:56.494Z,16.25
2018-10-18T08:33:26.062Z,16.38
2018-10-18T08:35:55.976Z,16.32
2018-10-18T08:38:25.486Z,16.37
2018-10-18T08:40:55.420Z,16.47
2018-10-18T08:43:24.910Z,16.27
2018-10-18T08:45:54.733Z,16.17
2018-10-18T08:48:23.969Z,16.32
2018-10-18T08:50:53.247Z,16.29
2018-10-18T08:53:22.784Z,16.45
2018-10-18T08:55:52.614Z,16.47
2018-10-18T08:58:22.159Z,16.45
2018-10-18T09:00:51.644Z,16.84
2018-10-18T09:03:20.941Z,16.87
2018-10-18T09:05:50.427Z,16.90
2018-10-18T09:08:20.174Z,16.85
2018-10-18T09:10:49.635Z,17.01
2018-10-18T09:13:19.403Z,16.92
2018-10-18T09:15:48.958Z,16.76
2018-10-18T09:18:18.641Z,16.92
2018-10-18T09:20:48.274Z,16.50
2018-10-18T09:23:17.807Z,16.54
2018-10-18T09:25:47.492Z,16.69
2018-10-18T09:28:17.027Z,16.68
2018-10-18T09:30:46.731Z,16.56
2018-10-18T09:33:16.452Z,16.83
2018-10-18T09:35:45.929Z,16.92
2018-10-18T09:38:15.467Z,16.90
2018-10-18T09:40:44.730Z,16.86
2018-10-18T09:43:14.337Z,17.04
2018-10-18T09:45:43.956Z,17.14
2018-10-18T09:48:13.499Z,17.09
2018-10-18T09:50:42.974Z,16.96
2018-10-18T09:53:12.461Z,17.04
2018-10-18T09:55:42.042Z,16.84
2018-10-18T09:58:12.130Z,16.83
2018-10-18T10:00:46.799Z,17.03
2018-10-18T10:03:17.926Z,16.86
2018-10-18T10:05:47.388Z,17.01
2018-10-18T10:08:16.927Z,17.13
2018-10-18T10:10:46.596Z,17.06
2018-10-18T10:13:16.201Z,17.23
2018-10-18T10:15:45.600Z,17.23
2018-10-18T10:18:15.763Z,17.33
2018-10-18T10:20:45.020Z,17.19
2018-10-18T10:23:15.332Z,17.18
2018-10-18T10:25:44.963Z,17.13
2018-10-18T10:28:14.387Z,17.14
2018-10-18T10:30:43.859Z,17.08
2018-10-18T10:33:13.429Z,17.09
2018-10-18T10:35:42.913Z,16.87
2018-10-18T10:38:12.378Z,16.85
2018-10-18T10:40:41.875Z,16.80
2018-10-18T10:43:11.563Z,16.84
2018-10-18T10:45:41.154Z,16.79
2018-10-18T10:48:10.888Z,16.80
2018-10-18T10:50:40.910Z,16.88
2018-10-18T10:53:10.451Z,16.71
2018-10-18T10:55:40.118Z,16.85
2018-10-18T10:58:09.680Z,16.83
2018-10-18T11:01:20.158Z,16.93
2018-10-18T11:03:51.251Z,17.07
2018-10-18T11:06:20.946Z,17.04
2018-10-18T11:08:50.530Z,16.95
2018-10-18T11:11:22.173Z,17.06
2018-10-18T11:13:51.993Z,16.99
2018-10-18T11:16:21.430Z,17.18
2018-10-18T11:18:50.934Z,17.22
2018-10-18T11:21:21.119Z,17.37
2018-10-18T11:23:50.562Z,17.43
2018-10-18T11:26:20.287Z,17.58
2018-10-18T11:28:49.398Z,17.66
2018-10-18T11:31:18.870Z,17.60
2018-10-18T11:33:48.410Z,17.84
2018-10-18T11:36:17.758Z,17.90
2018-10-18T11:38:47.182Z,17.96
2018-10-18T11:41:16.683Z,17.92
2018-10-18T11:43:46.680Z,17.91
2018-10-18T11:46:16.106Z,18.04
2018-10-18T11:48:45.606Z,17.99
2018-10-18T11:51:15.364Z,17.80
2018-10-18T11:53:44.851Z,17.94
2018-10-18T11:56:14.413Z,18.01
2018-10-18T11:58:44.037Z,18.05
2018-10-18T12:01:14.273Z,18.20
2018-10-18T12:03:43.694Z,18.27
2018-10-18T12:06:13.848Z,18.22
2018-10-18T12:08:43.091Z,18.11
2018-10-18T12:11:12.954Z,18.14
2018-10-18T12:13:42.518Z,18.17
2018-10-18T12:16:12.537Z,18.14
2018-10-18T12:18:41.742Z,18.19
2018-10-18T12:21:11.426Z,18.15
2018-10-18T12:23:40.957Z,18.06
2018-10-18T12:26:10.495Z,18.06
2018-10-18T12:28:39.947Z,18.16
2018-10-18T12:31:09.472Z,18.38
2018-10-18T12:33:39.178Z,18.26
2018-10-18T12:36:08.687Z,18.32
2018-10-18T12:38:38.771Z,18.37
2018-10-18T12:41:08.641Z,18.24
2018-10-18T12:43:38.042Z,18.23
2018-10-18T12:46:07.914Z,18.22
2018-10-18T12:48:37.504Z,18.23
2018-10-18T12:51:06.968Z,18.26
2018-10-18T12:53:36.795Z,18.40
2018-10-18T12:56:06.963Z,18.43
2018-10-18T12:58:37.111Z,18.45
2018-10-18T13:01:06.940Z,18.37
2018-10-18T13:03:36.290Z,18.41
2018-10-18T13:06:05.850Z,18.45
2018-10-18T13:08:35.300Z,18.43
2018-10-18T13:11:05.142Z,18.38
2018-10-18T13:13:34.568Z,19.26
2018-10-18T13:16:04.142Z,19.83
2018-10-18T13:18:33.534Z,19.88
2018-10-18T13:21:03.044Z,20.09
2018-10-18T13:23:32.333Z,20.00
2018-10-18T13:26:01.933Z,19.93
2018-10-18T13:28:31.347Z,19.74
2018-10-18T13:31:01.058Z,19.92
2018-10-18T13:33:30.565Z,20.20
2018-10-18T13:36:00.067Z,19.69
2018-10-18T13:38:29.593Z,20.11
2018-10-18T13:40:58.909Z,20.48
2018-10-18T13:43:28.216Z,20.49
2018-10-18T13:45:57.680Z,20.17
2018-10-18T13:48:27.162Z,19.73
2018-10-18T13:50:56.549Z,19.44
2018-10-18T13:53:25.755Z,18.98
2018-10-18T13:55:55.502Z,18.84
2018-10-18T13:58:25.167Z,18.62
2018-10-18T14:00:54.398Z,18.77
2018-10-18T14:03:23.823Z,18.60
2018-10-18T14:05:53.306Z,18.54
2018-10-18T14:08:23.047Z,18.58
2018-10-18T14:10:52.740Z,18.34
2018-10-18T14:13:22.875Z,18.40
2018-10-18T14:15:52.366Z,18.35
2018-10-18T14:18:22.915Z,18.30
2018-10-18T14:20:52.393Z,18.31
2018-10-18T14:23:22.461Z,18.14
2018-10-18T14:25:52.619Z,18.32
2018-10-18T14:28:22.206Z,18.27
2018-10-18T14:30:51.435Z,18.24
2018-10-18T14:33:20.964Z,18.25
2018-10-18T14:35:50.875Z,18.22
2018-10-18T14:38:20.649Z,18.20
2018-10-18T14:40:50.054Z,18.14
2018-10-18T14:43:19.582Z,18.15
2018-10-18T14:45:49.070Z,18.14
2018-10-18T14:48:19.299Z,18.21
2018-10-18T14:50:48.802Z,18.11
2018-10-18T14:53:18.098Z,18.08
2018-10-18T14:55:47.474Z,17.98
2018-10-18T14:58:17.006Z,18.20
2018-10-18T15:00:46.507Z,18.28
2018-10-18T15:03:16.027Z,18.18
2018-10-18T15:05:45.511Z,18.15
2018-10-18T15:08:15.955Z,18.27
2018-10-18T15:10:45.361Z,18.17
2018-10-18T15:13:14.886Z,18.19
2018-10-18T15:15:44.375Z,18.02
2018-10-18T15:18:13.899Z,18.13
2018-10-18T15:20:43.607Z,18.06
2018-10-18T15:23:13.137Z,18.11
2018-10-18T15:25:42.547Z,18.18
2018-10-18T15:28:11.705Z,18.15
2018-10-18T15:30:43.766Z,17.99
2018-10-18T15:33:16.270Z,18.11
2018-10-18T15:35:46.466Z,18.13
2018-10-18T15:38:17.371Z,18.07
2018-10-18T15:40:48.803Z,18.07
2018-10-18T15:43:19.883Z,18.00
2018-10-18T15:45:50.359Z,17.94
2018-10-18T15:48:21.620Z,17.90
2018-10-18T15:50:52.383Z,17.93
2018-10-18T15:53:22.617Z,17.84
2018-10-18T15:55:53.093Z,17.87
2018-10-18T15:58:24.325Z,17.89
2018-10-18T16:00:55.525Z,17.79
2018-10-18T16:03:27.205Z,17.76
2018-10-18T16:05:56.606Z,17.75
2018-10-18T16:08:26.128Z,17.79
2018-10-18T16:10:56.092Z,17.72
2018-10-18T16:13:25.880Z,17.77
2018-10-18T16:15:55.235Z,17.73
2018-10-18T16:18:24.745Z,17.74
2018-10-18T16:20:54.119Z,17.72
2018-10-18T16:23:23.531Z,17.54
2018-10-18T16:25:53.061Z,17.56
2018-10-18T16:28:22.579Z,17.57
2018-10-18T16:30:52.049Z,17.64
2018-10-18T16:33:21.874Z,17.63
2018-10-18T16:35:51.671Z,17.59
2018-10-18T16:38:21.280Z,17.61
2018-10-18T16:40:50.708Z,17.65
2018-10-18T16:43:20.388Z,17.52
2018-10-18T16:45:50.103Z,17.58
2018-10-18T16:48:19.672Z,17.61
2018-10-18T16:50:49.165Z,17.59
2018-10-18T16:53:18.579Z,17.43
2018-10-18T16:55:48.174Z,17.50
2018-10-18T16:58:17.507Z,17.44
2018-10-18T17:00:47.307Z,17.32
2018-10-18T17:03:17.195Z,17.18
2018-10-18T17:05:47.561Z,17.14
2018-10-18T17:08:17.744Z,17.07
2018-10-18T17:10:47.378Z,16.90
2018-10-18T17:13:17.067Z,16.77
2018-10-18T17:15:46.403Z,16.64
2018-10-18T17:18:15.983Z,16.56
2018-10-18T17:20:45.551Z,16.52
2018-10-18T17:23:14.958Z,16.46
2018-10-18T17:25:44.444Z,16.35
2018-10-18T17:28:15.327Z,16.39
2018-10-18T17:30:45.486Z,16.23
2018-10-18T17:33:14.989Z,16.13
2018-10-18T17:35:44.519Z,15.93
2018-10-18T17:38:14.092Z,15.90
2018-10-18T17:40:43.867Z,15.74
2018-10-18T17:43:13.078Z,15.74
2018-10-18T17:45:42.691Z,15.63
2018-10-18T17:48:13.194Z,15.76
2018-10-18T17:50:42.631Z,15.65
2018-10-18T17:53:18.827Z,15.52
2018-10-18T17:55:49.331Z,15.63
2018-10-18T17:58:18.866Z,15.48
2018-10-18T18:00:48.050Z,15.53
2018-10-18T18:03:17.328Z,15.38
2018-10-18T18:05:47.615Z,15.41
2018-10-18T18:08:17.328Z,15.35
2018-10-18T18:10:46.782Z,15.35
2018-10-18T18:13:16.300Z,15.35
2018-10-18T18:15:46.232Z,15.37
2018-10-18T18:18:15.727Z,15.24
2018-10-18T18:20:45.419Z,15.10
2018-10-18T18:23:14.959Z,14.94
2018-10-18T18:25:45.815Z,14.81
2018-10-18T18:28:15.162Z,14.76
2018-10-18T18:30:45.683Z,14.86
2018-10-18T18:33:16.736Z,14.75
2018-10-18T18:35:46.749Z,14.81
2018-10-18T18:38:16.266Z,14.65
2018-10-18T18:40:48.190Z,14.54
2018-10-18T18:43:19.401Z,14.55
2018-10-18T18:45:50.895Z,14.44
2018-10-18T18:48:22.182Z,14.54
2018-10-18T18:50:51.560Z,14.57
2018-10-18T18:53:22.814Z,14.48
2018-10-18T18:55:54.425Z,14.44
2018-10-18T18:58:24.256Z,14.31
2018-10-18T19:00:54.454Z,14.36
2018-10-18T19:03:24.258Z,14.26
2018-10-18T19:05:53.946Z,14.20
2018-10-18T19:08:23.444Z,14.18
2018-10-18T19:10:53.164Z,13.90
2018-10-18T19:13:22.727Z,14.06
2018-10-18T19:15:52.398Z,14.04
2018-10-18T19:18:22.464Z,13.88
2018-10-18T19:20:52.040Z,13.75
2018-10-18T19:23:22.063Z,13.71
2018-10-18T19:25:51.462Z,13.64
2018-10-18T19:28:20.982Z,13.56
2018-10-18T19:30:50.856Z,13.61
2018-10-18T19:33:20.997Z,13.51
2018-10-18T19:35:50.578Z,13.51
2018-10-18T19:38:20.262Z,13.39
2018-10-18T19:40:51.963Z,13.50
2018-10-18T19:43:23.304Z,13.35
2018-10-18T19:45:53.085Z,13.16
2018-10-18T19:48:24.881Z,13.16
2018-10-18T19:50:54.701Z,13.08
2018-10-18T19:53:24.602Z,12.95
2018-10-18T19:55:55.634Z,13.07
2018-10-18T19:58:28.573Z,13.02
2018-10-18T20:00:59.982Z,12.96
2018-10-18T20:03:31.456Z,13.01
2018-10-18T20:06:01.314Z,12.97
2018-10-18T20:08:31.032Z,12.92
2018-10-18T20:11:00.970Z,12.88
2018-10-18T20:13:30.413Z,12.80
2018-10-18T20:16:00.355Z,12.77
2018-10-18T20:18:29.865Z,12.71
2018-10-18T20:20:59.595Z,12.70
2018-10-18T20:23:31.751Z,12.66
2018-10-18T20:26:01.638Z,12.62
2018-10-18T20:28:31.044Z,12.53
2018-10-18T20:31:03.032Z,12.60
2018-10-18T20:33:35.052Z,12.59
2018-10-18T20:36:07.038Z,12.40
2018-10-18T20:38:38.815Z,12.41
2018-10-18T20:41:10.474Z,12.52
2018-10-18T20:43:42.942Z,12.39
2018-10-18T20:46:14.661Z,12.32
2018-10-18T20:48:47.303Z,12.37
2018-10-18T20:51:19.154Z,12.32
2018-10-18T20:53:50.626Z,12.30
2018-10-18T20:56:22.133Z,12.23
2018-10-18T20:58:53.847Z,12.36
2018-10-18T21:01:24.391Z,12.15
2018-10-18T21:03:55.934Z,12.22
2018-10-18T21:06:27.550Z,12.14
2018-10-18T21:08:59.407Z,12.14
2018-10-18T21:11:31.636Z,12.05
2018-10-18T21:14:03.067Z,11.99
2018-10-18T21:16:34.413Z,12.21
2018-10-18T21:19:04.265Z,11.99
2018-10-18T21:21:34.845Z,12.04
2018-10-18T21:24:06.950Z,11.87
2018-10-18T21:26:38.795Z,11.91
2018-10-18T21:29:11.237Z,11.88
2018-10-18T21:31:42.787Z,11.83
2018-10-18T21:34:14.755Z,11.77
2018-10-18T21:36:45.907Z,11.88
2018-10-18T21:39:26.319Z,11.77
2018-10-18T21:41:55.763Z,11.82
2018-10-18T21:44:27.834Z,11.77
2018-10-18T21:46:57.913Z,11.64
2018-10-18T21:49:28.126Z,11.61
2018-10-18T21:51:57.921Z,11.37
2018-10-18T21:54:27.867Z,11.26
2018-10-18T21:56:57.897Z,11.30
2018-10-18T21:59:27.258Z,11.37
2018-10-18T22:01:56.598Z,11.41
2018-10-18T22:04:28.264Z,11.57
2018-10-18T22:07:00.543Z,11.52
2018-10-18T22:09:32.625Z,11.41
2018-10-18T22:12:04.450Z,11.42
2018-10-18T22:14:35.856Z,11.53
2018-10-18T22:17:08.114Z,11.41
2018-10-18T22:19:40.055Z,11.23
2018-10-18T22:22:11.416Z,11.26
2018-10-18T22:24:43.344Z,11.35
2018-10-18T22:27:15.416Z,11.39
2018-10-18T22:29:47.417Z,11.21
2018-10-18T22:32:20.073Z,11.26
2018-10-18T22:34:52.057Z,11.38
2018-10-18T22:37:24.916Z,11.32
2018-10-18T22:39:57.018Z,11.35
2018-10-18T22:42:28.666Z,11.25
2018-10-18T22:45:00.129Z,11.16
2018-10-18T22:47:32.042Z,11.13
2018-10-18T22:50:03.783Z,11.19
2018-10-18T22:52:35.685Z,11.06
2018-10-18T22:55:07.306Z,11.10
2018-10-18T22:57:38.019Z,11.05
2018-10-18T23:00:08.279Z,11.07
2018-10-18T23:02:40.153Z,11.01
2018-10-18T23:05:12.023Z,11.04
2018-10-18T23:07:45.170Z,10.95
2018-10-18T23:10:17.427Z,10.83
2018-10-18T23:12:48.979Z,10.81
2018-10-18T23:15:20.976Z,10.93
2018-10-18T23:17:52.330Z,10.76
2018-10-18T23:20:21.771Z,10.89
2018-10-18T23:22:51.306Z,11.01
2018-10-18T23:25:21.457Z,10.91
2018-10-18T23:27:51.002Z,10.87
2018-10-18T23:30:20.707Z,10.90
2018-10-18T23:32:50.842Z,10.90
2018-10-18T23:35:20.317Z,10.82
2018-10-18T23:37:49.623Z,10.70
2018-10-18T23:40:19.098Z,10.44
2018-10-18T23:42:48.401Z,10.53
2018-10-18T23:45:20.462Z,10.67
2018-10-18T23:47:51.311Z,10.63
2018-10-18T23:50:21.473Z,10.66
2018-10-18T23:52:50.723Z,10.52
2018-10-18T23:55:20.258Z,10.45
2018-10-18T23:57:49.477Z,10.40
